createdAt,value
2022-08-17T00:00:43.930Z,3.53
2022-08-17T00:03:33.259Z,3.75
2022-08-17T00:06:07.019Z,4.13
2022-08-17T00:08:39.277Z,3.90
2022-08-17T00:11:10.258Z,3.28
2022-08-17T00:13:41.140Z,4.10
2022-08-17T00:16:15.033Z,4.07
2022-08-17T00:19:05.818Z,4.03
2022-08-17T00:22:14.716Z,3.40
2022-08-17T00:24:24.830Z,4.65
2022-08-17T00:26:53.993Z,3.80
2022-08-17T00:29:22.703Z,3.63
2022-08-17T00:31:53.682Z,4.03
2022-08-17T00:34:22.187Z,3.60
2022-08-17T00:36:50.995Z,3.50
2022-08-17T00:39:19.308Z,3.95
2022-08-17T00:41:48.248Z,3.83
2022-08-17T00:44:16.911Z,3.78
2022-08-17T00:46:47.914Z,3.70
2022-08-17T00:49:19.365Z,4.10
2022-08-17T00:51:53.769Z,4.22
2022-08-17T00:54:25.036Z,5.18
2022-08-17T00:57:05.441Z,4.93
2022-08-17T00:59:55.926Z,3.80
2022-08-17T01:02:50.017Z,4.88
2022-08-17T01:05:21.733Z,4.53
2022-08-17T01:07:54.852Z,4.05
2022-08-17T01:10:58.384Z,4.10
2022-08-17T01:13:18.514Z,3.35
2022-08-17T01:15:48.990Z,4.50
2022-08-17T01:18:18.129Z,4.32
2022-08-17T01:20:49.656Z,3.92
2022-08-17T01:23:20.572Z,3.75
2022-08-17T01:25:53.388Z,3.80
2022-08-17T01:28:33.322Z,4.38
2022-08-17T01:31:13.493Z,4.25
2022-08-17T01:33:47.643Z,4.45
2022-08-17T01:36:17.240Z,4.35
2022-08-17T01:38:45.581Z,4.35
2022-08-17T01:41:16.571Z,3.35
2022-08-17T01:43:48.813Z,4.10
2022-08-17T01:46:23.958Z,4.60
2022-08-17T01:48:52.817Z,4.90
2022-08-17T01:51:21.841Z,4.38
2022-08-17T01:53:54.790Z,4.07
2022-08-17T01:56:24.531Z,4.82
2022-08-17T01:58:53.883Z,4.03
2022-08-17T02:01:26.413Z,4.00
2022-08-17T02:04:00.441Z,4.55
2022-08-17T02:06:45.313Z,4.53
2022-08-17T02:09:25.512Z,3.97
2022-08-17T02:14:28.696Z,4.20
2022-08-17T02:16:57.576Z,4.25
2022-08-17T02:19:26.300Z,3.90
2022-08-17T02:21:55.176Z,4.43
2022-08-17T02:25:00.815Z,4.03
2022-08-17T02:27:17.928Z,4.67
2022-08-17T02:29:50.613Z,3.20
2022-08-17T02:32:27.856Z,4.25
2022-08-17T02:35:00.769Z,3.55
2022-08-17T02:37:39.284Z,3.78
2022-08-17T02:40:09.159Z,4.32
2022-08-17T02:42:43.229Z,3.40
2022-08-17T02:45:20.338Z,3.70
2022-08-17T02:47:59.536Z,3.70
2022-08-17T02:50:38.225Z,4.20
2022-08-17T02:53:13.751Z,4.63
2022-08-17T02:55:50.828Z,3.00
2022-08-17T02:58:34.567Z,3.83
2022-08-17T03:01:08.331Z,4.00
2022-08-17T03:03:42.667Z,2.78
2022-08-17T03:06:13.013Z,4.18
2022-08-17T03:08:41.698Z,3.60
2022-08-17T03:11:11.661Z,3.67
2022-08-17T03:13:41.395Z,3.35
2022-08-17T03:16:10.387Z,3.55
2022-08-17T03:18:42.992Z,3.55
2022-08-17T03:21:13.120Z,3.60
2022-08-17T03:23:47.033Z,3.88
2022-08-17T03:26:23.610Z,3.38
2022-08-17T03:28:58.820Z,3.13
2022-08-17T03:31:28.355Z,3.60
2022-08-17T03:34:01.017Z,3.20
2022-08-17T03:36:32.838Z,2.95
2022-08-17T03:39:06.262Z,3.45
2022-08-17T03:41:35.405Z,3.78
2022-08-17T03:44:04.702Z,3.22
2022-08-17T03:46:51.319Z,3.08
2022-08-17T03:49:39.097Z,2.92
2022-08-17T03:52:25.453Z,2.72
2022-08-17T03:55:11.367Z,3.45
2022-08-17T03:57:41.211Z,2.67
2022-08-17T04:00:09.967Z,2.90
2022-08-17T04:03:00.208Z,2.92
2022-08-17T04:05:29.231Z,2.35
2022-08-17T04:07:58.193Z,2.20
2022-08-17T04:10:26.735Z,2.55
2022-08-17T04:12:55.914Z,2.08
2022-08-17T04:15:26.895Z,1.95
2022-08-17T04:17:55.796Z,1.95
2022-08-17T04:20:27.566Z,1.63
2022-08-17T04:22:58.932Z,1.67
2022-08-17T04:25:28.298Z,2.00
2022-08-17T04:27:58.350Z,2.22
2022-08-17T04:30:27.524Z,1.98
2022-08-17T04:33:14.507Z,2.33
2022-08-17T04:35:48.114Z,1.67
2022-08-17T04:38:20.990Z,2.17
2022-08-17T04:41:08.302Z,2.40
2022-08-17T04:43:40.079Z,1.60
2022-08-17T04:46:15.881Z,1.92
2022-08-17T04:48:47.244Z,1.60
2022-08-17T04:51:17.536Z,1.70
2022-08-17T04:53:53.959Z,1.85
2022-08-17T04:56:31.376Z,1.88
2022-08-17T04:59:02.568Z,1.60
2022-08-17T05:01:35.473Z,1.92
2022-08-17T05:04:33.322Z,1.80
2022-08-17T05:06:55.661Z,1.52
2022-08-17T05:09:24.770Z,2.10
2022-08-17T05:11:53.658Z,2.05
2022-08-17T05:14:33.728Z,2.17
2022-08-17T05:17:04.561Z,2.13
2022-08-17T05:19:37.422Z,1.95
2022-08-17T05:22:12.459Z,2.03
2022-08-17T05:24:50.475Z,1.85
2022-08-17T05:27:24.163Z,1.98
2022-08-17T05:29:59.836Z,2.03
2022-08-17T05:32:39.321Z,1.80
2022-08-17T05:35:11.723Z,2.20
2022-08-17T05:37:47.131Z,1.80
2022-08-17T05:40:15.788Z,1.60
2022-08-17T05:43:07.817Z,2.20
2022-08-17T05:46:03.580Z,1.70
2022-08-17T05:48:40.023Z,1.85
2022-08-17T05:51:20.579Z,1.95
2022-08-17T05:53:49.038Z,2.10
2022-08-17T05:56:33.740Z,2.30
2022-08-17T05:59:12.778Z,2.20
2022-08-17T06:01:47.888Z,2.40
2022-08-17T06:04:32.026Z,1.88
2022-08-17T06:07:07.747Z,1.80
2022-08-17T06:09:50.572Z,1.60
2022-08-17T06:12:24.862Z,1.65
2022-08-17T06:14:59.417Z,1.75
2022-08-17T06:17:28.449Z,1.75
2022-08-17T06:20:01.008Z,1.90
2022-08-17T06:22:39.242Z,2.00
2022-08-17T06:25:40.826Z,2.58
2022-08-17T06:28:16.345Z,1.98
2022-08-17T06:30:58.571Z,2.38
2022-08-17T06:33:34.667Z,2.47
2022-08-17T06:36:09.319Z,2.60
2022-08-17T06:38:38.870Z,2.15
2022-08-17T06:41:16.593Z,2.00
2022-08-17T06:44:42.287Z,2.35
2022-08-17T06:47:13.504Z,2.53
2022-08-17T06:49:41.664Z,2.03
2022-08-17T06:52:13.121Z,2.10
2022-08-17T06:55:02.343Z,2.20
2022-08-17T06:57:34.184Z,2.13
2022-08-17T07:00:17.673Z,2.30
2022-08-17T07:03:03.519Z,2.33
2022-08-17T07:05:37.364Z,2.42
2022-08-17T07:08:27.736Z,2.03
2022-08-17T07:11:01.550Z,3.53
2022-08-17T07:13:37.474Z,2.63
2022-08-17T07:16:14.721Z,2.67
2022-08-17T07:18:43.821Z,2.60
2022-08-17T07:21:21.784Z,3.00
2022-08-17T07:24:09.611Z,3.17
2022-08-17T07:27:05.050Z,3.72
2022-08-17T07:29:36.712Z,3.45
2022-08-17T07:32:06.643Z,3.13
2022-08-17T07:34:56.179Z,3.50
2022-08-17T07:37:28.366Z,3.95
2022-08-17T07:39:59.631Z,4.20
2022-08-17T07:43:02.429Z,4.35
2022-08-17T07:45:52.469Z,3.80
2022-08-17T07:48:22.171Z,3.97
2022-08-17T07:51:00.186Z,4.38
2022-08-17T07:53:31.193Z,4.78
2022-08-17T07:56:00.407Z,4.88
2022-08-17T07:58:28.740Z,4.85
2022-08-17T08:01:05.457Z,4.43
2022-08-17T08:03:41.238Z,4.70
2022-08-17T08:06:21.818Z,5.45
2022-08-17T08:09:00.504Z,5.25
2022-08-17T08:11:31.788Z,5.03
2022-08-17T08:14:18.477Z,5.60
2022-08-17T08:16:59.779Z,5.75
2022-08-17T08:19:29.225Z,6.15
2022-08-17T08:22:03.613Z,6.72
2022-08-17T08:24:55.322Z,5.75
2022-08-17T08:27:28.902Z,6.90
2022-08-17T08:30:11.188Z,5.88
2022-08-17T08:32:57.583Z,6.32
2022-08-17T08:35:32.463Z,5.80
2022-08-17T08:38:00.798Z,6.80
2022-08-17T08:40:32.346Z,5.90
2022-08-17T08:43:02.284Z,6.30
2022-08-17T08:45:51.687Z,4.85
2022-08-17T08:48:53.934Z,6.47
2022-08-17T08:51:27.659Z,6.53
2022-08-17T08:54:15.976Z,7.82
2022-08-17T08:57:19.861Z,5.88
2022-08-17T08:59:51.217Z,5.63
2022-08-17T09:02:48.418Z,6.43
2022-08-17T09:05:29.353Z,6.03
2022-08-17T09:08:16.417Z,6.28
2022-08-17T09:10:58.737Z,6.45
2022-08-17T09:13:32.482Z,6.88
2022-08-17T09:16:22.689Z,6.40
2022-08-17T09:19:00.743Z,7.00
2022-08-17T09:21:48.547Z,6.22
2022-08-17T09:24:22.956Z,6.47
2022-08-17T09:27:14.220Z,7.72
2022-08-17T09:29:45.652Z,6.60
2022-08-17T09:32:23.292Z,7.70
2022-08-17T09:34:56.045Z,6.78
2022-08-17T09:37:30.581Z,6.93
2022-08-17T09:39:59.267Z,6.95
2022-08-17T09:42:32.719Z,7.55
2022-08-17T09:45:08.421Z,8.20
2022-08-17T09:47:50.861Z,8.18
2022-08-17T09:51:04.174Z,7.68
2022-08-17T09:53:32.503Z,7.00
2022-08-17T09:56:07.269Z,9.05
2022-08-17T09:59:02.483Z,9.55
2022-08-17T10:01:45.817Z,9.30
2022-08-17T10:04:14.202Z,8.05
2022-08-17T10:06:50.980Z,7.72
2022-08-17T10:09:23.816Z,8.30
2022-08-17T10:12:21.446Z,8.43
2022-08-17T10:14:55.730Z,7.30
2022-08-17T10:17:27.072Z,8.32
2022-08-17T10:20:11.675Z,8.52
2022-08-17T10:23:05.744Z,9.02
2022-08-17T10:25:55.935Z,10.73
2022-08-17T10:28:30.306Z,10.13
2022-08-17T10:31:33.854Z,9.63
2022-08-17T10:34:03.677Z,9.10
2022-08-17T10:36:37.859Z,8.52
2022-08-17T10:39:09.541Z,9.30
2022-08-17T10:41:42.649Z,8.65
2022-08-17T10:44:39.557Z,8.68
2022-08-17T10:47:28.688Z,9.63
2022-08-17T10:49:57.615Z,8.60
2022-08-17T10:52:30.399Z,8.73
2022-08-17T10:55:02.553Z,9.38
2022-08-17T10:57:33.839Z,10.13
2022-08-17T11:00:01.947Z,9.63
2022-08-17T11:02:51.568Z,7.60
2022-08-17T11:05:27.587Z,8.95
2022-08-17T11:08:14.644Z,9.15
2022-08-17T11:11:04.490Z,9.98
2022-08-17T11:13:39.973Z,9.82
2022-08-17T11:16:15.354Z,8.80
2022-08-17T11:19:08.547Z,10.43
2022-08-17T11:21:55.370Z,9.85
2022-08-17T11:24:32.362Z,9.18
2022-08-17T11:27:12.133Z,10.07
2022-08-17T11:30:01.500Z,11.57
2022-08-17T11:32:47.096Z,12.23
2022-08-17T11:35:24.508Z,12.32
2022-08-17T11:38:02.502Z,12.25
2022-08-17T11:40:50.170Z,11.88
2022-08-17T11:43:25.652Z,10.50
2022-08-17T11:45:58.172Z,12.13
2022-08-17T11:48:49.286Z,11.45
2022-08-17T11:51:34.951Z,14.40
2022-08-17T11:54:31.265Z,12.98
2022-08-17T11:56:52.924Z,11.00
2022-08-17T11:59:27.298Z,11.57
2022-08-17T12:01:57.233Z,16.38
2022-08-17T12:04:28.533Z,13.35
2022-08-17T12:07:00.024Z,14.45
2022-08-17T12:09:33.263Z,13.32
2022-08-17T12:12:14.698Z,14.82
2022-08-17T12:17:56.574Z,15.07
2022-08-17T12:20:36.101Z,15.23
2022-08-17T12:23:12.262Z,13.77
2022-08-17T12:25:41.813Z,14.63
2022-08-17T12:28:25.518Z,14.77
2022-08-17T12:33:27.811Z,14.35
2022-08-17T12:36:00.515Z,13.10
2022-08-17T12:38:36.856Z,14.40
2022-08-17T12:41:21.605Z,15.13
2022-08-17T12:44:02.950Z,12.55
2022-08-17T12:46:35.817Z,15.55
2022-08-17T12:49:23.996Z,15.48
2022-08-17T12:51:55.602Z,13.40
2022-08-17T12:54:31.417Z,15.65
2022-08-17T12:57:03.128Z,13.93
2022-08-17T12:59:33.175Z,15.73
2022-08-17T13:02:07.241Z,14.45
2022-08-17T13:04:40.627Z,13.70
2022-08-17T13:07:12.205Z,16.35
2022-08-17T13:09:51.358Z,16.45
2022-08-17T13:12:26.864Z,16.60
2022-08-17T13:14:58.392Z,16.05
2022-08-17T13:17:31.457Z,15.85
2022-08-17T13:20:00.474Z,16.63
2022-08-17T13:22:33.534Z,15.13
2022-08-17T13:25:07.316Z,15.35
2022-08-17T13:27:42.762Z,16.95
2022-08-17T13:30:12.897Z,18.10
2022-08-17T13:32:59.604Z,16.27
2022-08-17T13:35:39.762Z,14.55
2022-08-17T13:38:13.408Z,14.27
2022-08-17T13:40:43.945Z,14.05
2022-08-17T13:43:12.421Z,15.70
2022-08-17T13:45:50.765Z,15.48
2022-08-17T13:48:25.662Z,15.70
2022-08-17T13:50:56.542Z,16.00
2022-08-17T13:53:37.226Z,14.23
2022-08-17T13:56:31.748Z,12.23
2022-08-17T13:59:12.990Z,11.90
2022-08-17T14:01:53.470Z,15.43
2022-08-17T14:04:25.243Z,17.58
2022-08-17T14:06:58.375Z,17.00
2022-08-17T14:09:49.490Z,18.05
2022-08-17T14:12:21.687Z,21.60
2022-08-17T14:14:50.712Z,21.85
2022-08-17T14:17:36.308Z,20.90
2022-08-17T14:20:10.353Z,23.40
2022-08-17T14:22:44.549Z,24.52
2022-08-17T14:25:14.850Z,23.83
2022-08-17T14:27:52.735Z,23.10
2022-08-17T14:30:23.855Z,27.38
2022-08-17T14:33:12.800Z,27.88
2022-08-17T14:35:44.270Z,24.52
2022-08-17T14:38:16.015Z,27.58
2022-08-17T14:40:48.934Z,25.48
2022-08-17T14:43:20.442Z,24.15
2022-08-17T14:45:49.621Z,23.48
2022-08-17T14:48:19.300Z,24.95
2022-08-17T14:50:48.779Z,23.08
2022-08-17T14:53:23.601Z,24.27
2022-08-17T14:55:53.097Z,20.77
2022-08-17T14:58:24.497Z,22.27
2022-08-17T15:00:53.372Z,19.92
2022-08-17T15:03:33.739Z,21.70
2022-08-17T15:06:03.399Z,19.83
2022-08-17T15:08:33.922Z,18.75
2022-08-17T15:11:03.035Z,20.05
2022-08-17T15:13:35.077Z,19.25
2022-08-17T15:16:03.846Z,18.55
2022-08-17T15:18:34.662Z,18.67
2022-08-17T15:21:04.922Z,16.55
2022-08-17T15:23:40.000Z,17.05
2022-08-17T15:26:09.220Z,18.10
2022-08-17T15:28:38.050Z,14.68
2022-08-17T15:31:07.970Z,14.68
2022-08-17T15:33:37.666Z,16.15
2022-08-17T15:36:07.488Z,15.27
2022-08-17T15:38:39.276Z,14.55
2022-08-17T15:41:14.971Z,15.20
2022-08-17T15:43:45.684Z,15.00
2022-08-17T15:46:20.995Z,14.77
2022-08-17T15:48:58.211Z,12.43
2022-08-17T15:51:31.094Z,11.90
2022-08-17T15:54:04.537Z,13.52
2022-08-17T15:56:54.482Z,13.07
2022-08-17T15:59:31.685Z,13.07
2022-08-17T16:03:14.821Z,14.38
2022-08-17T16:05:08.731Z,14.27
2022-08-17T16:07:44.325Z,17.23
2022-08-17T16:10:18.211Z,16.35
2022-08-17T16:12:51.386Z,15.50
2022-08-17T16:15:21.291Z,15.07
2022-08-17T16:18:00.385Z,15.40
2022-08-17T16:20:31.472Z,17.13
2022-08-17T16:23:01.073Z,16.88
2022-08-17T16:25:52.046Z,13.40
2022-08-17T16:28:20.107Z,13.95
2022-08-17T16:30:48.601Z,14.75
2022-08-17T16:33:26.595Z,15.43
2022-08-17T16:35:56.297Z,17.75
2022-08-17T16:38:30.397Z,16.60
2022-08-17T16:40:59.009Z,17.35
2022-08-17T16:43:31.717Z,16.80
2022-08-17T16:46:01.729Z,15.98
2022-08-17T16:48:34.571Z,16.50
2022-08-17T16:51:04.692Z,16.52
2022-08-17T16:53:35.269Z,13.93
2022-08-17T16:56:07.995Z,16.50
2022-08-17T16:58:40.977Z,16.00
2022-08-17T17:01:13.794Z,14.27
2022-08-17T17:03:44.913Z,14.30
2022-08-17T17:06:33.829Z,12.32
2022-08-17T17:09:12.131Z,11.57
2022-08-17T17:11:47.611Z,12.75
2022-08-17T17:14:20.110Z,12.35
2022-08-17T17:16:54.054Z,12.63
2022-08-17T17:19:55.819Z,13.18
2022-08-17T17:22:24.521Z,13.38
2022-08-17T17:24:52.875Z,13.20
2022-08-17T17:27:25.006Z,13.02
2022-08-17T17:30:14.070Z,11.90
2022-08-17T17:32:47.316Z,13.20
2022-08-17T17:35:23.254Z,14.30
2022-08-17T17:37:53.100Z,14.05
2022-08-17T17:40:22.951Z,12.30
2022-08-17T17:42:53.487Z,10.18
2022-08-17T17:45:26.328Z,11.48
2022-08-17T17:47:54.694Z,11.07
2022-08-17T17:50:24.738Z,12.50
2022-08-17T17:52:55.944Z,12.50
2022-08-17T17:55:37.379Z,13.18
2022-08-17T17:58:24.309Z,12.85
2022-08-17T18:00:55.407Z,13.95
2022-08-17T18:03:31.056Z,14.00
2022-08-17T18:06:05.298Z,13.50
2022-08-17T18:08:45.686Z,14.07
2022-08-17T18:11:39.876Z,14.52
2022-08-17T18:14:10.686Z,14.45
2022-08-17T18:16:42.770Z,12.80
2022-08-17T18:19:19.966Z,14.73
2022-08-17T18:21:55.580Z,13.43
2022-08-17T18:24:36.541Z,14.75
2022-08-17T18:27:24.020Z,14.32
2022-08-17T18:29:54.647Z,15.90
2022-08-17T18:32:23.351Z,14.50
2022-08-17T18:34:54.170Z,15.05
2022-08-17T18:37:31.106Z,14.75
2022-08-17T18:39:59.823Z,12.75
2022-08-17T18:42:30.056Z,14.18
2022-08-17T18:44:58.340Z,12.25
2022-08-17T18:47:28.509Z,13.93
2022-08-17T18:49:58.543Z,15.13
2022-08-17T18:52:29.125Z,14.60
2022-08-17T18:55:03.424Z,13.07
2022-08-17T18:57:39.076Z,13.57
2022-08-17T19:00:38.324Z,13.52
2022-08-17T19:03:18.349Z,14.18
2022-08-17T19:06:15.584Z,13.23
2022-08-17T19:08:45.053Z,13.70
2022-08-17T19:11:22.681Z,14.52
2022-08-17T19:13:56.154Z,13.43
2022-08-17T19:16:30.617Z,13.93
2022-08-17T19:19:12.496Z,14.20
2022-08-17T19:22:01.332Z,14.60
2022-08-17T19:24:32.670Z,14.48
2022-08-17T19:27:12.100Z,13.65
2022-08-17T19:29:56.070Z,14.77
2022-08-17T19:32:34.303Z,13.15
2022-08-17T19:35:03.674Z,13.02
2022-08-17T19:38:12.857Z,13.30
2022-08-17T19:40:53.779Z,13.98
2022-08-17T19:43:34.560Z,13.18
2022-08-17T19:46:03.917Z,12.88
2022-08-17T19:48:51.022Z,14.00
2022-08-17T19:51:29.194Z,13.98
2022-08-17T19:54:06.599Z,12.95
2022-08-17T19:56:44.041Z,12.57
2022-08-17T19:59:21.418Z,12.35
2022-08-17T20:01:54.607Z,13.32
2022-08-17T20:04:31.912Z,12.80
2022-08-17T20:07:03.990Z,12.43
2022-08-17T20:09:38.726Z,14.95
2022-08-17T20:12:18.454Z,14.55
2022-08-17T20:14:58.479Z,14.70
2022-08-17T20:17:38.709Z,14.40
2022-08-17T20:20:24.059Z,12.82
2022-08-17T20:23:25.459Z,12.77
2022-08-17T20:26:17.173Z,14.13
2022-08-17T20:29:07.606Z,13.10
2022-08-17T20:31:52.909Z,13.75
2022-08-17T20:34:34.974Z,14.85
2022-08-17T20:37:09.105Z,11.90
2022-08-17T20:40:08.219Z,14.15
2022-08-17T20:45:26.194Z,12.52
2022-08-17T20:48:22.093Z,13.40
2022-08-17T20:50:48.553Z,12.90
2022-08-17T20:53:37.691Z,14.88
2022-08-17T20:56:07.139Z,13.23
2022-08-17T20:58:45.083Z,14.88
2022-08-17T21:01:14.754Z,13.63
2022-08-17T21:03:50.631Z,13.57
2022-08-17T21:06:21.726Z,13.15
2022-08-17T21:08:59.075Z,14.05
2022-08-17T21:11:57.080Z,13.30
2022-08-17T21:14:34.280Z,13.55
2022-08-17T21:17:18.462Z,14.63
2022-08-17T21:20:08.243Z,13.15
2022-08-17T21:22:43.265Z,13.93
2022-08-17T21:25:14.318Z,14.13
2022-08-17T21:27:51.996Z,14.23
2022-08-17T21:30:42.670Z,14.32
2022-08-17T21:33:31.607Z,12.65
2022-08-17T21:35:59.948Z,14.30
2022-08-17T21:38:35.489Z,14.40
2022-08-17T21:41:04.011Z,13.60
2022-08-17T21:43:35.383Z,16.02
2022-08-17T21:46:05.634Z,15.43
2022-08-17T21:48:45.746Z,15.98
2022-08-17T21:51:17.634Z,15.15
2022-08-17T21:53:50.350Z,15.25
2022-08-17T21:56:23.493Z,16.00
2022-08-17T21:59:00.152Z,14.65
2022-08-17T22:01:34.850Z,15.10
2022-08-17T22:04:04.419Z,16.00
2022-08-17T22:06:38.633Z,15.45
2022-08-17T22:09:10.778Z,16.40
2022-08-17T22:11:52.741Z,16.40
2022-08-17T22:14:26.686Z,16.15
2022-08-17T22:17:23.536Z,16.42
2022-08-17T22:19:56.311Z,15.13
2022-08-17T22:22:26.818Z,13.13
2022-08-17T22:24:57.784Z,13.65
2022-08-17T22:27:47.124Z,17.73
2022-08-17T22:30:18.398Z,17.23
2022-08-17T22:33:00.924Z,14.55
2022-08-17T22:35:34.747Z,16.95
2022-08-17T22:38:21.193Z,18.00
2022-08-17T22:40:50.725Z,17.15
2022-08-17T22:43:21.190Z,17.40
2022-08-17T22:45:55.563Z,17.60
2022-08-17T22:48:27.439Z,17.48
2022-08-17T22:51:13.768Z,17.80
2022-08-17T22:54:04.952Z,19.73
2022-08-17T22:56:51.195Z,17.67
2022-08-17T22:59:35.774Z,17.33
2022-08-17T23:02:13.853Z,14.70
2022-08-17T23:04:44.655Z,16.25
2022-08-17T23:07:12.826Z,16.58
2022-08-17T23:09:41.404Z,17.02
2022-08-17T23:12:14.941Z,17.60
2022-08-17T23:14:45.790Z,20.65
2022-08-17T23:17:16.349Z,18.08
2022-08-17T23:19:45.045Z,18.30
2022-08-17T23:22:13.591Z,19.10
2022-08-17T23:24:46.443Z,19.17
2022-08-17T23:27:14.829Z,17.33
2022-08-17T23:29:43.284Z,18.20
2022-08-17T23:32:25.156Z,18.88
2022-08-17T23:34:53.946Z,18.17
2022-08-17T23:37:22.538Z,19.17
2022-08-17T23:39:53.865Z,19.38
2022-08-17T23:42:25.003Z,19.77
2022-08-17T23:44:53.835Z,13.93
2022-08-17T23:47:23.294Z,19.30
2022-08-17T23:49:54.100Z,19.58
2022-08-17T23:52:28.019Z,19.75
2022-08-17T23:57:33.870Z,16.95
